Quicksburg, Virginia
Current Conditions -  °F | °C
As of 6:15 PM on Saturday 25 Oct 2014 (Local Time) from K8W2 Reporting Station
Clear Clear  
Wind Chill: 62°   Ceiling: Unl
Heat Index: 62°   Visibility: 10mi
Dew Point: 47°   Wind: 5mph
Humidity: 60%   Direction: 280°W
Pressure: 29.78"   Gusts: NA
Location:  38.69°N, 78.68°W
Report Text: K8W2 252215Z AUTO 28004KT 10SM CLR 16/09 A2978 RMK AO1 T01640086
Loading
Personal Weather Stations






























Interactive Weather Map
Tropical Storm Tracking
New forecast layout! Learn more

10-Day Weather Forecast

Advertisements
Track Severe Weather on mobile